createdAt,value
2022-09-07T00:00:58.326Z,15.38
2022-09-07T00:03:26.106Z,15.40
2022-09-07T00:05:53.874Z,15.44
2022-09-07T00:08:25.175Z,15.48
2022-09-07T00:10:59.329Z,15.53
2022-09-07T00:13:31.026Z,15.58
2022-09-07T00:16:00.323Z,15.66
2022-09-07T00:18:28.344Z,15.73
2022-09-07T00:21:03.759Z,15.78
2022-09-07T00:23:31.930Z,15.79
2022-09-07T00:26:04.202Z,15.79
2022-09-07T00:28:32.476Z,15.79
2022-09-07T00:31:00.421Z,15.78
2022-09-07T00:33:28.798Z,15.73
2022-09-07T00:35:58.759Z,15.67
2022-09-07T00:38:26.372Z,15.61
2022-09-07T00:40:53.966Z,15.58
2022-09-07T00:43:41.786Z,15.53
2022-09-07T00:46:20.756Z,15.45
2022-09-07T00:49:02.848Z,15.38
2022-09-07T00:51:41.626Z,15.32
2022-09-07T00:54:14.605Z,15.26
2022-09-07T00:56:44.131Z,15.22
2022-09-07T00:59:16.256Z,15.19
2022-09-07T01:01:45.012Z,15.20
2022-09-07T01:04:14.215Z,15.20
2022-09-07T01:06:42.975Z,15.20
2022-09-07T01:09:15.436Z,15.20
2022-09-07T01:11:45.342Z,15.21
2022-09-07T01:14:15.407Z,15.21
2022-09-07T01:17:11.162Z,15.21
2022-09-07T01:20:28.572Z,15.25
2022-09-07T01:23:33.938Z,15.31
2022-09-07T01:26:26.770Z,15.35
2022-09-07T01:29:11.816Z,15.42
2022-09-07T01:31:51.049Z,15.49
2022-09-07T01:34:23.368Z,15.56
2022-09-07T01:36:59.083Z,15.60
2022-09-07T01:39:41.391Z,15.61
2022-09-07T01:42:13.462Z,15.62
2022-09-07T01:44:49.631Z,15.61
2022-09-07T01:47:37.879Z,15.62
2022-09-07T01:50:11.070Z,15.63
2022-09-07T01:53:10.001Z,15.62
2022-09-07T01:55:47.099Z,15.61
2022-09-07T01:58:56.757Z,15.60
2022-09-07T02:01:55.595Z,15.57
2022-09-07T02:04:45.643Z,15.52
2022-09-07T02:07:30.518Z,15.48
2022-09-07T02:10:12.791Z,15.43
2022-09-07T02:12:48.003Z,15.34
2022-09-07T02:15:24.000Z,15.26
2022-09-07T02:17:57.169Z,15.19
2022-09-07T02:20:32.974Z,15.17
2022-09-07T02:23:05.158Z,15.14
2022-09-07T02:25:59.224Z,15.09
2022-09-07T02:28:32.666Z,15.07
2022-09-07T02:31:01.062Z,15.03
2022-09-07T02:33:29.676Z,15.03
2022-09-07T02:35:58.463Z,15.04
2022-09-07T02:38:26.272Z,15.06
2022-09-07T02:40:57.075Z,15.08
2022-09-07T02:43:26.168Z,15.12
2022-09-07T02:46:11.459Z,15.18
2022-09-07T02:48:59.611Z,15.22
2022-09-07T02:52:03.343Z,15.29
2022-09-07T02:55:15.589Z,15.35
2022-09-07T02:58:14.219Z,15.38
2022-09-07T03:01:27.018Z,15.36
2022-09-07T03:04:26.012Z,15.31
2022-09-07T03:06:59.180Z,15.24
2022-09-07T03:09:31.426Z,15.20
2022-09-07T03:12:07.036Z,15.14
2022-09-07T03:14:35.713Z,15.11
2022-09-07T03:17:03.705Z,15.09
2022-09-07T03:19:31.334Z,15.06
2022-09-07T03:21:59.306Z,15.05
2022-09-07T03:24:27.236Z,15.01
2022-09-07T03:26:54.998Z,15.01
2022-09-07T03:29:22.701Z,14.99
2022-09-07T03:31:50.621Z,14.98
2022-09-07T03:34:18.606Z,14.97
2022-09-07T03:36:46.357Z,14.95
2022-09-07T03:39:14.360Z,14.94
2022-09-07T03:41:42.069Z,14.96
2022-09-07T03:44:11.398Z,14.98
2022-09-07T03:46:39.424Z,14.99
2022-09-07T03:49:07.226Z,15.03
2022-09-07T03:51:35.052Z,15.05
2022-09-07T03:54:02.842Z,15.10
2022-09-07T03:56:30.669Z,15.18
2022-09-07T03:58:59.187Z,15.24
2022-09-07T04:01:27.466Z,15.30
2022-09-07T04:04:02.006Z,15.34
2022-09-07T04:06:29.409Z,15.37
2022-09-07T04:09:02.981Z,15.39
2022-09-07T04:11:31.479Z,15.39
2022-09-07T04:13:59.298Z,15.34
2022-09-07T04:16:27.867Z,15.32
2022-09-07T04:18:55.884Z,15.28
2022-09-07T04:21:25.465Z,15.25
2022-09-07T04:23:53.621Z,15.22
2022-09-07T04:26:25.808Z,15.19
2022-09-07T04:28:54.203Z,15.16
2022-09-07T04:31:23.964Z,15.15
2022-09-07T04:33:53.505Z,15.12
2022-09-07T04:36:24.111Z,15.10
2022-09-07T04:38:59.350Z,15.09
2022-09-07T04:41:28.766Z,15.08
2022-09-07T04:44:02.228Z,15.09
2022-09-07T04:46:34.029Z,15.10
2022-09-07T04:49:06.454Z,15.14
2022-09-07T04:51:35.333Z,15.19
2022-09-07T04:54:04.806Z,15.23
2022-09-07T04:56:33.265Z,15.28
2022-09-07T04:59:02.183Z,15.36
2022-09-07T05:01:30.242Z,15.43
2022-09-07T05:04:00.756Z,15.48
2022-09-07T05:06:29.894Z,15.53
2022-09-07T05:08:59.378Z,15.58
2022-09-07T05:11:29.728Z,15.63
2022-09-07T05:14:00.661Z,15.67
2022-09-07T05:16:29.958Z,15.68
2022-09-07T05:19:01.283Z,15.68
2022-09-07T05:21:32.742Z,15.66
2022-09-07T05:24:01.937Z,15.64
2022-09-07T05:26:33.525Z,15.59
2022-09-07T05:31:33.898Z,15.57
2022-09-07T05:36:32.077Z,15.53
2022-09-07T05:38:59.899Z,15.54
2022-09-07T05:41:27.732Z,15.54
2022-09-07T05:46:25.531Z,15.52
2022-09-07T05:48:53.327Z,15.52
2022-09-07T05:51:21.099Z,15.52
2022-09-07T05:53:50.106Z,15.54
2022-09-07T05:56:17.932Z,15.55
2022-09-07T05:58:50.433Z,15.58
2022-09-07T06:01:18.506Z,15.61
2022-09-07T06:03:46.566Z,15.62
2022-09-07T06:06:18.314Z,15.66
2022-09-07T06:08:50.569Z,15.74
2022-09-07T06:11:23.608Z,15.81
2022-09-07T06:13:51.980Z,15.89
2022-09-07T06:16:20.085Z,15.92
2022-09-07T06:18:49.472Z,15.94
2022-09-07T06:21:23.337Z,15.95
2022-09-07T06:23:51.512Z,15.96
2022-09-07T06:26:19.587Z,16.00
2022-09-07T06:28:50.345Z,16.02
2022-09-07T06:31:21.636Z,16.03
2022-09-07T06:33:50.633Z,16.02
2022-09-07T06:36:22.738Z,15.99
2022-09-07T06:38:52.250Z,15.97
2022-09-07T06:43:57.739Z,15.97
2022-09-07T06:48:56.634Z,15.92
2022-09-07T06:51:29.127Z,15.89
2022-09-07T06:56:27.676Z,15.93
2022-09-07T06:58:56.475Z,15.96
2022-09-07T07:01:24.909Z,16.01
2022-09-07T07:03:53.738Z,16.05
2022-09-07T07:06:22.035Z,16.13
2022-09-07T07:08:53.894Z,16.17
2022-09-07T07:11:21.586Z,16.21
2022-09-07T07:13:49.491Z,16.24
2022-09-07T07:16:17.847Z,16.27
2022-09-07T07:18:48.055Z,16.29
2022-09-07T07:21:15.888Z,16.29
2022-09-07T07:23:43.746Z,16.30
2022-09-07T07:26:17.911Z,16.31
2022-09-07T07:29:06.809Z,16.31
2022-09-07T07:31:24.963Z,16.32
2022-09-07T07:33:53.506Z,16.33
2022-09-07T07:36:26.792Z,16.34
2022-09-07T07:44:00.561Z,16.43
2022-09-07T07:46:29.890Z,16.45
2022-09-07T07:48:58.384Z,16.46
2022-09-07T07:51:26.654Z,16.45
2022-09-07T07:53:54.848Z,16.44
2022-09-07T07:56:23.501Z,16.42
2022-09-07T07:58:52.046Z,16.43
2022-09-07T08:01:19.969Z,16.47
2022-09-07T08:03:48.612Z,16.51
2022-09-07T08:06:19.430Z,16.58
2022-09-07T08:08:48.289Z,16.63
2022-09-07T08:11:19.760Z,16.66
2022-09-07T08:13:49.520Z,16.71
2022-09-07T08:16:18.117Z,16.84
2022-09-07T08:18:47.108Z,16.97
2022-09-07T08:21:16.750Z,17.20
2022-09-07T08:23:44.349Z,17.48
2022-09-07T08:26:11.981Z,17.64
2022-09-07T08:28:41.962Z,17.75
2022-09-07T08:31:13.185Z,17.89
2022-09-07T08:33:41.569Z,18.12
2022-09-07T08:36:13.419Z,18.37
2022-09-07T08:38:41.422Z,18.59
2022-09-07T08:41:40.143Z,18.81
2022-09-07T08:44:30.945Z,19.00
2022-09-07T08:47:38.053Z,19.25
2022-09-07T08:50:38.385Z,19.49
2022-09-07T08:53:16.345Z,19.69
2022-09-07T08:55:52.135Z,19.82
2022-09-07T08:58:49.161Z,19.79
2022-09-07T09:01:36.704Z,19.79
2022-09-07T09:06:56.880Z,19.71
2022-09-07T09:10:02.223Z,19.68
2022-09-07T09:12:39.945Z,19.67
2022-09-07T09:15:20.674Z,19.72
2022-09-07T09:18:14.637Z,19.82
2022-09-07T09:20:52.838Z,19.87
2022-09-07T09:23:26.436Z,19.93
2022-09-07T09:26:17.207Z,20.00
2022-09-07T09:28:44.693Z,20.18
2022-09-07T09:31:19.225Z,20.40
2022-09-07T09:34:06.726Z,20.64
2022-09-07T09:36:41.417Z,20.80
2022-09-07T09:39:31.069Z,20.93
2022-09-07T09:42:15.197Z,20.95
2022-09-07T09:44:43.858Z,21.14
2022-09-07T09:47:35.437Z,21.39
2022-09-07T09:52:29.039Z,21.59
2022-09-07T09:52:51.595Z,21.84
2022-09-07T09:55:34.873Z,21.94
2022-09-07T10:01:23.760Z,22.17
2022-09-07T10:06:10.363Z,22.42
2022-09-07T10:08:38.065Z,22.39
2022-09-07T10:11:09.838Z,22.29
2022-09-07T10:13:46.881Z,22.23
2022-09-07T10:16:14.744Z,22.26
2022-09-07T10:18:58.246Z,22.23
2022-09-07T10:21:29.686Z,22.18
2022-09-07T10:24:01.949Z,22.15
2022-09-07T10:26:38.175Z,22.08
2022-09-07T10:29:30.876Z,22.08
2022-09-07T10:32:34.418Z,22.11
2022-09-07T10:35:25.141Z,22.15
2022-09-07T10:38:18.348Z,22.28
2022-09-07T10:40:54.399Z,22.40
2022-09-07T10:43:44.596Z,22.40
2022-09-07T10:47:02.198Z,22.50
2022-09-07T10:50:21.782Z,22.68
2022-09-07T10:52:23.180Z,22.84
2022-09-07T10:55:08.109Z,22.81
2022-09-07T10:58:13.152Z,22.71
2022-09-07T11:01:08.239Z,22.52
2022-09-07T11:04:24.074Z,22.44
2022-09-07T11:06:57.077Z,22.28
2022-09-07T11:09:47.947Z,22.00
2022-09-07T11:12:27.365Z,21.89
2022-09-07T11:15:18.980Z,21.79
2022-09-07T11:17:57.862Z,21.81
2022-09-07T11:20:31.740Z,21.79
2022-09-07T11:23:11.619Z,21.69
2022-09-07T11:26:07.230Z,21.61
2022-09-07T11:31:39.188Z,21.44
2022-09-07T11:34:33.537Z,21.47
2022-09-07T11:37:18.784Z,21.32
2022-09-07T11:40:16.070Z,21.15
2022-09-07T11:42:52.408Z,21.09
2022-09-07T11:45:36.031Z,21.11
2022-09-07T11:48:20.963Z,21.00
2022-09-07T11:50:57.086Z,20.93
2022-09-07T11:53:28.941Z,20.90
2022-09-07T11:56:04.600Z,21.01
2022-09-07T11:59:01.933Z,21.11
2022-09-07T12:01:53.162Z,21.28
2022-09-07T12:05:03.253Z,21.59
2022-09-07T12:07:57.881Z,21.81
2022-09-07T12:11:04.731Z,21.83
2022-09-07T12:14:12.370Z,21.89
2022-09-07T12:17:09.307Z,21.99
2022-09-07T12:19:37.124Z,21.96
2022-09-07T12:22:04.971Z,21.98
2022-09-07T12:24:46.459Z,21.98
2022-09-07T12:27:25.908Z,21.91
2022-09-07T12:30:05.002Z,21.89
2022-09-07T12:32:57.635Z,21.86
2022-09-07T12:35:36.950Z,21.85
2022-09-07T12:38:20.613Z,21.93
2022-09-07T12:40:59.399Z,21.90
2022-09-07T12:43:52.445Z,21.85
2022-09-07T12:46:37.513Z,21.79
2022-09-07T12:49:56.430Z,21.68
2022-09-07T12:52:35.209Z,21.62
2022-09-07T12:55:28.963Z,21.68
2022-09-07T12:58:19.017Z,21.78
2022-09-07T13:01:06.889Z,21.82
2022-09-07T13:03:51.385Z,21.96
2022-09-07T13:07:06.582Z,22.13
2022-09-07T13:09:36.412Z,22.35
2022-09-07T13:12:53.377Z,22.52
2022-09-07T13:14:55.669Z,22.68
2022-09-07T13:17:41.280Z,22.80
2022-09-07T13:20:21.145Z,22.90
2022-09-07T13:22:53.594Z,22.89
2022-09-07T13:25:29.472Z,22.87
2022-09-07T13:28:04.120Z,22.93
2022-09-07T13:31:26.264Z,23.00
2022-09-07T13:33:54.346Z,23.10
2022-09-07T13:36:36.198Z,23.19
2022-09-07T13:39:09.094Z,23.26
2022-09-07T13:41:42.231Z,23.24
2022-09-07T13:44:15.361Z,23.28
2022-09-07T13:47:15.453Z,23.34
2022-09-07T13:49:56.141Z,23.33
2022-09-07T13:52:43.937Z,23.42
2022-09-07T13:55:28.450Z,23.50
2022-09-07T13:58:10.553Z,23.46
2022-09-07T14:00:54.499Z,23.46
2022-09-07T14:03:25.933Z,23.48
2022-09-07T14:06:24.562Z,23.44
2022-09-07T14:09:05.720Z,23.43
2022-09-07T14:11:47.950Z,23.45
2022-09-07T14:14:19.678Z,23.41
2022-09-07T14:17:04.686Z,23.44
2022-09-07T14:19:40.664Z,23.46
2022-09-07T14:22:16.742Z,23.49
2022-09-07T14:25:00.848Z,23.52
2022-09-07T14:27:35.923Z,23.59
2022-09-07T14:30:27.605Z,23.60
2022-09-07T14:33:05.168Z,23.60
2022-09-07T14:35:36.731Z,23.58
2022-09-07T14:41:03.024Z,23.47
2022-09-07T14:43:37.529Z,23.45
2022-09-07T14:46:25.080Z,23.43
2022-09-07T14:48:57.693Z,23.41
2022-09-07T14:51:35.678Z,23.46
2022-09-07T14:54:05.865Z,23.49
2022-09-07T14:56:39.729Z,23.53
2022-09-07T14:59:41.938Z,23.51
2022-09-07T15:02:26.876Z,23.44
2022-09-07T15:05:27.906Z,23.38
2022-09-07T15:07:59.958Z,23.38
2022-09-07T15:10:36.541Z,23.40
2022-09-07T15:13:07.844Z,23.42
2022-09-07T15:15:40.624Z,23.32
2022-09-07T15:19:01.151Z,23.28
2022-09-07T15:21:37.839Z,23.22
2022-09-07T15:24:07.391Z,23.16
2022-09-07T15:27:09.014Z,23.10
2022-09-07T15:29:24.449Z,23.07
2022-09-07T15:32:01.730Z,23.02
2022-09-07T15:34:21.912Z,22.93
2022-09-07T15:36:52.289Z,22.78
2022-09-07T15:39:25.323Z,22.62
2022-09-07T15:41:53.056Z,22.49
2022-09-07T15:44:25.169Z,22.34
2022-09-07T15:49:21.275Z,22.07
2022-09-07T15:54:20.677Z,21.82
2022-09-07T15:59:17.605Z,21.66
2022-09-07T16:01:53.026Z,21.64
2022-09-07T16:04:15.243Z,21.63
2022-09-07T16:06:43.080Z,21.62
2022-09-07T16:09:10.610Z,21.59
2022-09-07T16:11:38.834Z,21.56
2022-09-07T16:14:06.281Z,21.56
2022-09-07T16:19:07.291Z,21.46
2022-09-07T16:21:32.468Z,21.37
2022-09-07T16:24:00.141Z,21.28
2022-09-07T16:26:28.366Z,21.16
2022-09-07T16:28:56.056Z,21.06
2022-09-07T16:31:26.883Z,20.96
2022-09-07T16:33:54.920Z,20.84
2022-09-07T16:36:25.498Z,20.73
2022-09-07T16:38:59.789Z,20.63
2022-09-07T16:41:31.145Z,20.49
2022-09-07T16:43:59.611Z,20.37
2022-09-07T16:46:34.043Z,20.26
2022-09-07T16:49:02.381Z,20.17
2022-09-07T16:51:30.113Z,20.09
2022-09-07T16:53:58.643Z,20.00
2022-09-07T16:56:30.222Z,19.90
2022-09-07T16:59:01.881Z,19.82
2022-09-07T17:01:33.918Z,19.74
2022-09-07T17:04:05.592Z,19.69
2022-09-07T17:06:31.703Z,19.65
2022-09-07T17:08:59.836Z,19.61
2022-09-07T17:11:34.731Z,19.60
2022-09-07T17:14:04.970Z,19.57
2022-09-07T17:16:35.729Z,19.52
2022-09-07T17:21:36.825Z,19.46
2022-09-07T17:24:06.641Z,19.38
2022-09-07T17:26:34.763Z,19.34
2022-09-07T17:29:02.555Z,19.27
2022-09-07T17:34:04.858Z,19.08
2022-09-07T17:36:33.922Z,18.97
2022-09-07T17:39:18.755Z,18.88
2022-09-07T17:41:31.538Z,18.79
2022-09-07T17:43:59.680Z,18.70
2022-09-07T17:46:32.878Z,18.62
2022-09-07T17:49:01.681Z,18.54
2022-09-07T17:51:32.337Z,18.46
2022-09-07T17:54:02.610Z,18.39
2022-09-07T17:56:31.436Z,18.34
2022-09-07T18:01:30.294Z,18.24
2022-09-07T18:03:58.153Z,18.17
2022-09-07T18:06:25.787Z,18.13
2022-09-07T18:08:53.624Z,18.06
2022-09-07T18:13:54.998Z,18.04
2022-09-07T18:16:32.496Z,18.05
2022-09-07T18:19:05.228Z,18.09
2022-09-07T18:21:35.834Z,18.14
2022-09-07T18:24:08.207Z,18.15
2022-09-07T18:26:40.227Z,18.17
2022-09-07T18:29:26.232Z,18.15
2022-09-07T18:31:39.515Z,18.12
2022-09-07T18:34:07.111Z,18.11
2022-09-07T18:36:35.394Z,18.12
2022-09-07T18:39:04.895Z,18.09
2022-09-07T18:41:34.239Z,18.06
2022-09-07T18:44:02.610Z,18.00
2022-09-07T18:46:30.408Z,17.94
2022-09-07T18:48:58.224Z,17.90
2022-09-07T18:51:26.461Z,17.81
2022-09-07T18:53:54.103Z,17.74
2022-09-07T18:56:21.985Z,17.69
2022-09-07T18:58:56.662Z,17.64
2022-09-07T19:01:24.703Z,17.60
2022-09-07T19:03:55.407Z,17.54
2022-09-07T19:06:24.678Z,17.49
2022-09-07T19:08:53.487Z,17.45
2022-09-07T19:11:24.259Z,17.43
2022-09-07T19:14:00.625Z,17.44
2022-09-07T19:16:28.382Z,17.45
2022-09-07T19:18:59.942Z,17.47
2022-09-07T19:21:32.418Z,17.51
2022-09-07T19:24:03.632Z,17.52
2022-09-07T19:26:38.323Z,17.53
2022-09-07T19:29:10.830Z,17.55
2022-09-07T19:31:38.453Z,17.56
2022-09-07T19:34:06.056Z,17.55
2022-09-07T19:36:34.098Z,17.54
2022-09-07T19:39:02.007Z,17.53
2022-09-07T19:41:30.741Z,17.52
2022-09-07T19:43:58.464Z,17.50
2022-09-07T19:46:26.072Z,17.42
2022-09-07T19:48:53.729Z,17.40
2022-09-07T19:51:21.157Z,17.36
2022-09-07T19:53:48.654Z,17.32
2022-09-07T19:56:20.942Z,17.27
2022-09-07T19:58:49.437Z,17.21
2022-09-07T20:01:21.035Z,17.17
2022-09-07T20:03:59.159Z,17.15
2022-09-07T20:06:27.542Z,17.09
2022-09-07T20:08:56.668Z,17.05
2022-09-07T20:11:24.855Z,17.00
2022-09-07T20:13:52.741Z,16.95
2022-09-07T20:16:20.399Z,16.92
2022-09-07T20:18:48.223Z,16.86
2022-09-07T20:21:22.433Z,16.83
2022-09-07T20:23:51.119Z,16.80
2022-09-07T20:26:21.473Z,16.79
2022-09-07T20:29:11.049Z,16.78
2022-09-07T20:31:25.709Z,16.80
2022-09-07T20:33:53.727Z,16.78
2022-09-07T20:36:23.851Z,16.79
2022-09-07T20:38:54.451Z,16.78
2022-09-07T20:41:27.889Z,16.75
2022-09-07T20:43:58.511Z,16.74
2022-09-07T20:46:27.941Z,16.74
2022-09-07T20:48:55.883Z,16.75
2022-09-07T20:51:23.654Z,16.76
2022-09-07T20:53:51.946Z,16.73
2022-09-07T20:56:24.017Z,16.69
2022-09-07T20:58:59.425Z,16.67
2022-09-07T21:01:28.539Z,16.63
2022-09-07T21:03:58.846Z,16.57
2022-09-07T21:06:28.439Z,16.52
2022-09-07T21:08:56.835Z,16.48
2022-09-07T21:11:34.528Z,16.42
2022-09-07T21:14:10.083Z,16.37
2022-09-07T21:16:38.433Z,16.30
2022-09-07T21:19:10.609Z,16.25
2022-09-07T21:21:42.691Z,16.22
2022-09-07T21:24:18.059Z,16.25
2022-09-07T21:26:47.198Z,16.24
2022-09-07T21:29:23.810Z,16.25
2022-09-07T21:31:55.424Z,16.28
2022-09-07T21:34:23.610Z,16.29
2022-09-07T21:36:52.011Z,16.29
2022-09-07T21:39:20.317Z,16.28
2022-09-07T21:41:47.773Z,16.27
2022-09-07T21:44:16.039Z,16.28
2022-09-07T21:46:44.304Z,16.28
2022-09-07T21:49:12.040Z,16.26
2022-09-07T21:51:39.865Z,16.25
2022-09-07T21:54:07.628Z,16.22
2022-09-07T21:56:35.398Z,16.19
2022-09-07T21:59:04.100Z,16.18
2022-09-07T22:01:32.252Z,16.16
2022-09-07T22:04:03.580Z,16.14
2022-09-07T22:06:33.415Z,16.09
2022-09-07T22:09:01.816Z,16.02
2022-09-07T22:11:30.521Z,15.95
2022-09-07T22:14:02.198Z,15.88
2022-09-07T22:16:32.381Z,15.85
2022-09-07T22:19:00.393Z,15.78
2022-09-07T22:21:29.560Z,15.75
2022-09-07T22:24:01.585Z,15.71
2022-09-07T22:26:34.776Z,15.66
2022-09-07T22:29:02.394Z,15.61
2022-09-07T22:31:33.458Z,15.60
2022-09-07T22:34:03.570Z,15.61
2022-09-07T22:36:36.268Z,15.63
2022-09-07T22:39:08.539Z,15.63
2022-09-07T22:41:38.638Z,15.68
2022-09-07T22:44:12.562Z,15.72
2022-09-07T22:46:43.119Z,15.77
2022-09-07T22:49:14.520Z,15.81
2022-09-07T22:51:42.681Z,15.82
2022-09-07T22:54:10.397Z,15.82
2022-09-07T22:56:38.628Z,15.78
2022-09-07T22:59:08.528Z,15.80
2022-09-07T23:01:36.666Z,15.79
2022-09-07T23:04:06.201Z,15.76
2022-09-07T23:06:37.375Z,15.73
2022-09-07T23:09:15.702Z,15.70
2022-09-07T23:11:45.265Z,15.67
2022-09-07T23:14:17.622Z,15.63
2022-09-07T23:16:46.195Z,15.58
2022-09-07T23:19:16.326Z,15.53
2022-09-07T23:21:44.394Z,15.47
2022-09-07T23:24:15.955Z,15.41
2022-09-07T23:26:44.153Z,15.38
2022-09-07T23:29:14.001Z,15.33
2022-09-07T23:31:42.274Z,15.30
2022-09-07T23:34:09.946Z,15.26
2022-09-07T23:36:37.671Z,15.23
2022-09-07T23:39:05.206Z,15.23
2022-09-07T23:41:33.120Z,15.23
2022-09-07T23:44:01.107Z,15.25
2022-09-07T23:46:28.787Z,15.28
2022-09-07T23:48:56.193Z,15.34
2022-09-07T23:51:24.794Z,15.39
2022-09-07T23:53:53.173Z,15.43
2022-09-07T23:56:23.390Z,15.47
2022-09-07T23:58:50.989Z,15.51
